createdAt,value
2023-02-13T00:00:54.044Z,6.57
2023-02-13T00:03:23.350Z,6.40
2023-02-13T00:05:50.889Z,6.78
2023-02-13T00:08:18.067Z,6.52
2023-02-13T00:10:45.636Z,6.56
2023-02-13T00:13:12.724Z,6.38
2023-02-13T00:15:40.251Z,6.49
2023-02-13T00:18:07.442Z,6.45
2023-02-13T00:20:34.848Z,6.63
2023-02-13T00:23:02.438Z,6.35
2023-02-13T00:25:31.154Z,6.32
2023-02-13T00:27:58.239Z,6.18
2023-02-13T00:30:25.707Z,6.26
2023-02-13T00:32:52.865Z,6.22
2023-02-13T00:35:20.310Z,6.20
2023-02-13T00:37:47.548Z,6.42
2023-02-13T00:40:15.356Z,6.25
2023-02-13T00:42:42.570Z,6.18
2023-02-13T00:45:10.181Z,6.42
2023-02-13T00:47:37.498Z,6.07
2023-02-13T00:50:05.719Z,6.23
2023-02-13T00:52:32.836Z,6.14
2023-02-13T00:55:00.298Z,6.05
2023-02-13T00:57:27.438Z,6.02
2023-02-13T00:59:54.843Z,6.44
2023-02-13T01:02:21.920Z,6.48
2023-02-13T01:04:49.446Z,6.28
2023-02-13T01:07:16.815Z,6.17
2023-02-13T01:09:44.949Z,6.14
2023-02-13T01:12:12.137Z,6.48
2023-02-13T01:14:39.466Z,6.38
2023-02-13T01:17:06.543Z,6.45
2023-02-13T01:19:34.066Z,6.32
2023-02-13T01:22:01.374Z,6.31
2023-02-13T01:24:30.137Z,6.32
2023-02-13T01:27:02.424Z,6.09
2023-02-13T01:29:30.093Z,6.23
2023-02-13T01:31:57.253Z,6.20
2023-02-13T01:34:29.028Z,6.22
2023-02-13T01:36:56.093Z,6.41
2023-02-13T01:39:25.754Z,6.29
2023-02-13T01:41:53.025Z,6.40
2023-02-13T01:44:55.793Z,6.49
2023-02-13T01:47:46.024Z,6.50
2023-02-13T01:50:18.882Z,6.69
2023-02-13T01:53:00.593Z,6.54
2023-02-13T01:55:29.280Z,6.42
2023-02-13T01:58:09.527Z,6.98
2023-02-13T02:00:37.961Z,6.63
2023-02-13T02:03:16.848Z,6.69
2023-02-13T02:05:44.991Z,6.83
2023-02-13T02:08:14.671Z,6.57
2023-02-13T02:10:42.347Z,6.48
2023-02-13T02:13:19.962Z,6.73
2023-02-13T02:15:49.262Z,6.69
2023-02-13T02:18:24.579Z,6.67
2023-02-13T02:21:10.373Z,6.94
2023-02-13T02:24:25.357Z,6.89
2023-02-13T02:27:37.678Z,6.92
2023-02-13T02:30:07.666Z,6.83
2023-02-13T02:32:55.819Z,6.88
2023-02-13T02:35:23.453Z,6.93
2023-02-13T02:38:31.537Z,6.79
2023-02-13T02:41:05.171Z,7.07
2023-02-13T02:44:07.407Z,6.82
2023-02-13T02:47:02.245Z,7.04
2023-02-13T02:49:56.327Z,7.19
2023-02-13T02:52:33.196Z,6.81
2023-02-13T02:55:30.858Z,6.93
2023-02-13T02:58:29.571Z,6.88
2023-02-13T03:01:20.212Z,6.93
2023-02-13T03:04:07.677Z,7.15
2023-02-13T03:06:44.545Z,6.88
2023-02-13T03:09:48.883Z,6.90
2023-02-13T03:12:40.828Z,7.23
2023-02-13T03:15:09.303Z,7.32
2023-02-13T03:17:56.294Z,7.29
2023-02-13T03:21:04.083Z,7.21
2023-02-13T03:23:49.271Z,7.05
2023-02-13T03:26:33.322Z,6.99
2023-02-13T03:29:32.292Z,7.15
2023-02-13T03:32:05.948Z,7.15
2023-02-13T03:34:57.297Z,6.92
2023-02-13T03:37:49.805Z,6.93
2023-02-13T03:40:35.965Z,6.82
2023-02-13T03:43:13.585Z,6.89
2023-02-13T03:45:57.252Z,6.89
2023-02-13T03:48:50.692Z,6.96
2023-02-13T03:51:30.031Z,6.98
2023-02-13T03:54:02.295Z,6.88
2023-02-13T03:56:52.225Z,7.03
2023-02-13T03:59:29.005Z,7.06
2023-02-13T04:02:05.380Z,6.88
2023-02-13T04:04:58.358Z,6.90
2023-02-13T04:07:32.820Z,6.80
2023-02-13T04:10:11.847Z,6.92
2023-02-13T04:13:21.554Z,7.27
2023-02-13T04:16:04.145Z,6.88
2023-02-13T04:18:33.445Z,6.92
2023-02-13T04:21:07.654Z,7.23
2023-02-13T04:23:36.967Z,7.19
2023-02-13T04:26:09.243Z,6.92
2023-02-13T04:28:36.745Z,7.12
2023-02-13T04:31:03.930Z,7.13
2023-02-13T04:33:31.432Z,6.90
2023-02-13T04:35:58.526Z,7.36
2023-02-13T04:38:25.899Z,7.09
2023-02-13T04:40:52.947Z,7.04
2023-02-13T04:43:20.356Z,7.26
2023-02-13T04:45:50.418Z,6.87
2023-02-13T04:48:18.121Z,6.90
2023-02-13T04:50:45.245Z,7.01
2023-02-13T04:53:12.642Z,6.86
2023-02-13T04:55:39.782Z,6.85
2023-02-13T04:58:07.067Z,6.65
2023-02-13T05:00:34.102Z,6.84
2023-02-13T05:03:09.080Z,7.44
2023-02-13T05:05:36.556Z,7.18
2023-02-13T05:08:05.278Z,6.86
2023-02-13T05:10:32.734Z,7.08
2023-02-13T05:13:00.240Z,7.16
2023-02-13T05:15:27.907Z,7.19
2023-02-13T05:17:55.294Z,7.11
2023-02-13T05:20:22.466Z,7.26
2023-02-13T05:23:24.431Z,6.85
2023-02-13T05:25:51.414Z,7.23
2023-02-13T05:28:37.098Z,7.31
2023-02-13T05:31:04.294Z,6.94
2023-02-13T05:33:31.733Z,7.64
2023-02-13T05:35:58.867Z,7.25
2023-02-13T05:38:26.208Z,7.56
2023-02-13T05:40:53.319Z,7.08
2023-02-13T05:43:20.892Z,7.38
2023-02-13T05:45:48.288Z,7.31
2023-02-13T05:48:15.617Z,7.17
2023-02-13T05:50:42.636Z,7.31
2023-02-13T05:53:10.022Z,7.25
2023-02-13T05:55:37.039Z,7.16
2023-02-13T05:58:04.369Z,7.55
2023-02-13T06:00:31.414Z,6.92
2023-02-13T06:02:58.796Z,7.40
2023-02-13T06:05:26.083Z,7.57
2023-02-13T06:07:53.548Z,7.51
2023-02-13T06:10:20.650Z,7.23
2023-02-13T06:12:48.054Z,7.31
2023-02-13T06:15:15.214Z,7.20
2023-02-13T06:17:42.571Z,7.60
2023-02-13T06:20:09.982Z,7.27
2023-02-13T06:22:37.399Z,7.46
2023-02-13T06:25:05.026Z,7.27
2023-02-13T06:27:32.489Z,7.29
2023-02-13T06:29:59.692Z,7.11
2023-02-13T06:32:27.033Z,7.12
2023-02-13T06:34:54.069Z,7.29
2023-02-13T06:37:21.588Z,7.02
2023-02-13T06:39:48.667Z,7.36
2023-02-13T06:42:16.031Z,7.21
2023-02-13T06:44:43.030Z,7.45
2023-02-13T06:47:10.780Z,7.39
2023-02-13T06:49:37.874Z,7.21
2023-02-13T06:52:05.450Z,7.47
2023-02-13T06:54:46.428Z,7.08
2023-02-13T06:57:15.710Z,7.01
2023-02-13T06:59:43.411Z,6.91
2023-02-13T07:02:11.961Z,6.88
2023-02-13T07:04:39.388Z,7.38
2023-02-13T07:07:06.905Z,7.55
2023-02-13T07:09:34.027Z,7.38
2023-02-13T07:12:05.753Z,7.41
2023-02-13T07:14:32.925Z,7.55
2023-02-13T07:17:00.265Z,7.32
2023-02-13T07:19:27.342Z,7.39
2023-02-13T07:21:54.652Z,7.24
2023-02-13T07:24:21.661Z,7.39
2023-02-13T07:26:49.137Z,7.43
2023-02-13T07:29:16.170Z,7.51
2023-02-13T07:31:43.614Z,7.42
2023-02-13T07:34:10.804Z,7.64
2023-02-13T07:36:38.248Z,7.50
2023-02-13T07:39:05.315Z,7.51
2023-02-13T07:41:33.895Z,7.55
2023-02-13T07:44:01.054Z,7.59
2023-02-13T07:46:28.616Z,7.15
2023-02-13T07:48:56.358Z,7.69
2023-02-13T07:51:26.890Z,7.72
2023-02-13T07:53:55.919Z,7.74
2023-02-13T07:56:26.273Z,7.35
2023-02-13T07:58:54.691Z,7.76
2023-02-13T08:01:22.114Z,7.41
2023-02-13T08:03:52.052Z,7.74
2023-02-13T08:06:21.180Z,7.48
2023-02-13T08:08:48.813Z,7.10
2023-02-13T08:11:53.218Z,7.62
2023-02-13T08:14:25.198Z,7.61
2023-02-13T08:16:53.607Z,7.72
2023-02-13T08:19:21.242Z,7.98
2023-02-13T08:21:48.658Z,8.38
2023-02-13T08:24:15.899Z,8.07
2023-02-13T08:26:43.596Z,8.26
2023-02-13T08:29:11.515Z,8.04
2023-02-13T08:31:39.000Z,7.67
2023-02-13T08:34:06.291Z,8.02
2023-02-13T08:36:33.666Z,8.07
2023-02-13T08:39:00.792Z,8.74
2023-02-13T08:41:28.422Z,8.43
2023-02-13T08:43:55.587Z,8.09
2023-02-13T08:46:23.214Z,8.30
2023-02-13T08:48:50.335Z,8.90
2023-02-13T08:51:18.257Z,8.73
2023-02-13T08:53:45.394Z,8.68
2023-02-13T08:56:13.078Z,8.51
2023-02-13T08:58:40.351Z,8.68
2023-02-13T09:01:09.140Z,8.56
2023-02-13T09:03:36.927Z,8.86
2023-02-13T09:06:04.733Z,8.73
2023-02-13T09:08:31.934Z,8.69
2023-02-13T09:11:01.865Z,8.88
2023-02-13T09:13:30.595Z,8.54
2023-02-13T09:16:00.551Z,8.69
2023-02-13T09:18:29.048Z,8.51
2023-02-13T09:21:07.900Z,8.87
2023-02-13T09:23:37.340Z,8.97
2023-02-13T09:26:06.988Z,9.77
2023-02-13T09:28:35.677Z,9.64
2023-02-13T09:31:15.325Z,9.08
2023-02-13T09:33:44.009Z,9.30
2023-02-13T09:36:14.790Z,9.62
2023-02-13T09:38:44.258Z,9.59
2023-02-13T09:41:31.608Z,9.73
2023-02-13T09:44:12.445Z,10.12
2023-02-13T09:46:41.232Z,9.87
2023-02-13T09:49:14.223Z,9.60
2023-02-13T09:51:44.829Z,10.11
2023-02-13T09:54:19.166Z,9.51
2023-02-13T09:56:54.922Z,9.11
2023-02-13T09:59:31.461Z,9.87
2023-02-13T10:02:08.336Z,9.34
2023-02-13T10:04:51.777Z,9.86
2023-02-13T10:07:45.086Z,9.68
2023-02-13T10:10:33.842Z,8.93
2023-02-13T10:13:33.548Z,9.69
2023-02-13T10:16:26.973Z,9.72
2023-02-13T10:19:25.879Z,9.83
2023-02-13T10:22:26.232Z,9.26
2023-02-13T10:25:04.576Z,9.70
2023-02-13T10:27:39.317Z,10.05
2023-02-13T10:30:18.742Z,9.78
2023-02-13T10:33:19.972Z,9.33
2023-02-13T10:36:11.557Z,9.84
2023-02-13T10:38:44.995Z,10.03
2023-02-13T10:41:42.974Z,9.33
2023-02-13T10:44:35.157Z,9.41
2023-02-13T10:47:14.848Z,9.37
2023-02-13T10:50:03.576Z,9.92
2023-02-13T10:53:04.991Z,10.08
2023-02-13T10:55:32.121Z,9.71
2023-02-13T10:58:15.696Z,10.28
2023-02-13T11:00:51.551Z,10.49
2023-02-13T11:03:22.397Z,10.13
2023-02-13T11:05:50.819Z,9.62
2023-02-13T11:08:24.068Z,9.46
2023-02-13T11:10:52.160Z,9.69
2023-02-13T11:13:21.417Z,10.06
2023-02-13T11:16:10.432Z,9.85
2023-02-13T11:18:41.554Z,9.69
2023-02-13T11:21:34.419Z,10.16
2023-02-13T11:24:02.169Z,9.79
2023-02-13T11:26:38.793Z,9.34
2023-02-13T11:29:18.799Z,9.67
2023-02-13T11:31:46.147Z,9.80
2023-02-13T11:34:22.878Z,9.70
2023-02-13T11:37:29.982Z,9.86
2023-02-13T11:39:59.730Z,9.63
2023-02-13T11:42:29.678Z,9.55
2023-02-13T11:45:07.437Z,9.27
2023-02-13T11:47:39.208Z,9.49
2023-02-13T11:50:29.015Z,9.69
2023-02-13T11:53:03.436Z,9.38
2023-02-13T11:55:32.780Z,9.16
2023-02-13T11:58:27.515Z,9.62
2023-02-13T12:01:28.674Z,10.39
2023-02-13T12:04:07.648Z,10.36
2023-02-13T12:06:39.897Z,9.97
2023-02-13T12:09:15.932Z,10.35
2023-02-13T12:11:50.145Z,11.01
2023-02-13T12:14:25.299Z,10.53
2023-02-13T12:17:29.220Z,10.20
2023-02-13T12:19:58.469Z,9.81
2023-02-13T12:22:52.833Z,10.22
2023-02-13T12:25:31.838Z,10.38
2023-02-13T12:28:20.332Z,10.54
2023-02-13T12:31:03.018Z,10.58
2023-02-13T12:34:03.701Z,11.08
2023-02-13T12:37:03.567Z,10.69
2023-02-13T12:39:41.888Z,10.65
2023-02-13T12:42:33.798Z,10.99
2023-02-13T12:45:16.392Z,10.61
2023-02-13T12:48:08.586Z,10.85
2023-02-13T12:51:14.387Z,11.83
2023-02-13T12:54:08.213Z,10.24
2023-02-13T12:56:54.077Z,10.98
2023-02-13T12:59:36.526Z,10.80
2023-02-13T13:02:48.333Z,10.67
2023-02-13T13:05:50.735Z,12.11
2023-02-13T13:08:42.844Z,10.88
2023-02-13T13:11:19.072Z,9.98
2023-02-13T13:14:43.808Z,9.70
2023-02-13T13:17:50.484Z,10.56
2023-02-13T13:20:31.337Z,10.53
2023-02-13T13:23:26.211Z,10.75
2023-02-13T13:26:05.799Z,10.63
2023-02-13T13:28:41.774Z,11.19
2023-02-13T13:31:11.733Z,10.35
2023-02-13T13:33:45.010Z,9.90
2023-02-13T13:36:21.341Z,11.37
2023-02-13T13:38:52.139Z,10.86
2023-02-13T13:41:55.306Z,10.36
2023-02-13T13:44:43.980Z,10.67
2023-02-13T13:47:25.323Z,10.05
2023-02-13T13:49:57.674Z,10.15
2023-02-13T13:52:40.034Z,10.20
2023-02-13T13:55:45.763Z,10.23
2023-02-13T13:58:47.610Z,9.62
2023-02-13T14:01:16.516Z,10.03
2023-02-13T14:03:48.982Z,9.53
2023-02-13T14:06:22.765Z,9.52
2023-02-13T14:08:55.563Z,9.80
2023-02-13T14:11:25.830Z,10.05
2023-02-13T14:13:53.537Z,10.46
2023-02-13T14:16:44.386Z,9.86
2023-02-13T14:19:38.522Z,9.96
2023-02-13T14:22:20.777Z,9.86
2023-02-13T14:24:54.038Z,9.77
2023-02-13T14:27:30.176Z,9.87
2023-02-13T14:29:59.410Z,9.67
2023-02-13T14:32:39.093Z,9.39
2023-02-13T14:35:28.160Z,9.94
2023-02-13T14:37:59.401Z,9.54
2023-02-13T14:40:51.156Z,9.17
2023-02-13T14:43:31.279Z,9.40
2023-02-13T14:46:14.124Z,9.03
2023-02-13T14:49:03.136Z,9.04
2023-02-13T14:51:41.210Z,8.60
2023-02-13T14:54:20.828Z,8.89
2023-02-13T14:56:50.961Z,8.93
2023-02-13T14:59:25.262Z,9.04
2023-02-13T15:01:59.497Z,8.48
2023-02-13T15:04:43.760Z,8.63
2023-02-13T15:07:23.656Z,8.95
2023-02-13T15:09:54.944Z,8.70
2023-02-13T15:12:33.821Z,8.61
2023-02-13T15:15:02.365Z,8.56
2023-02-13T15:17:32.864Z,8.57
2023-02-13T15:20:12.976Z,9.13
2023-02-13T15:22:46.617Z,8.73
2023-02-13T15:25:37.023Z,8.89
2023-02-13T15:28:07.348Z,8.68
2023-02-13T15:30:37.862Z,8.85
2023-02-13T15:33:27.658Z,8.59
2023-02-13T15:35:57.129Z,8.41
2023-02-13T15:38:32.228Z,8.56
2023-02-13T15:41:24.598Z,8.50
2023-02-13T15:43:56.627Z,8.29
2023-02-13T15:46:38.843Z,8.87
2023-02-13T15:49:10.599Z,8.94
2023-02-13T15:51:38.656Z,8.49
2023-02-13T15:54:29.294Z,8.19
2023-02-13T15:57:00.349Z,8.60
2023-02-13T15:59:36.423Z,8.28
2023-02-13T16:02:10.490Z,8.12
2023-02-13T16:04:40.244Z,8.45
2023-02-13T16:07:12.114Z,8.38
2023-02-13T16:09:39.742Z,8.26
2023-02-13T16:12:29.076Z,8.18
2023-02-13T16:15:03.662Z,8.28
2023-02-13T16:17:35.434Z,7.94
2023-02-13T16:20:06.970Z,8.02
2023-02-13T16:22:50.858Z,7.77
2023-02-13T16:25:36.008Z,7.59
2023-02-13T16:28:16.994Z,7.74
2023-02-13T16:31:04.496Z,7.72
2023-02-13T16:33:34.409Z,7.49
2023-02-13T16:36:11.494Z,7.85
2023-02-13T16:38:46.333Z,7.33
2023-02-13T16:41:22.262Z,7.56
2023-02-13T16:43:57.941Z,7.59
2023-02-13T16:46:33.362Z,7.59
2023-02-13T16:49:07.168Z,7.39
2023-02-13T16:51:44.839Z,7.45
2023-02-13T16:54:12.480Z,7.54
2023-02-13T16:56:53.298Z,7.19
2023-02-13T16:59:23.716Z,7.36
2023-02-13T17:02:23.656Z,7.43
2023-02-13T17:05:24.726Z,7.14
2023-02-13T17:07:58.083Z,7.29
2023-02-13T17:10:35.942Z,7.57
2023-02-13T17:13:17.775Z,7.47
2023-02-13T17:15:56.346Z,7.50
2023-02-13T17:18:24.369Z,7.51
2023-02-13T17:20:52.225Z,7.38
2023-02-13T17:23:25.489Z,7.30
2023-02-13T17:25:54.518Z,7.28
2023-02-13T17:28:29.383Z,7.72
2023-02-13T17:31:00.662Z,7.51
2023-02-13T17:33:36.608Z,7.36
2023-02-13T17:36:06.466Z,7.25
2023-02-13T17:38:36.145Z,7.48
2023-02-13T17:41:19.001Z,7.65
2023-02-13T17:43:50.893Z,7.46
2023-02-13T17:46:20.423Z,7.28
2023-02-13T17:48:49.915Z,7.08
2023-02-13T17:51:19.506Z,7.56
2023-02-13T17:53:51.107Z,7.69
2023-02-13T17:56:19.442Z,7.72
2023-02-13T17:58:52.261Z,7.66
2023-02-13T18:01:35.521Z,7.23
2023-02-13T18:04:16.048Z,7.45
2023-02-13T18:06:46.680Z,6.33
2023-02-13T18:09:15.628Z,6.44
2023-02-13T18:12:00.153Z,6.52
2023-02-13T18:14:34.034Z,6.38
2023-02-13T18:17:04.016Z,6.16
2023-02-13T18:19:32.548Z,6.21
2023-02-13T18:22:00.580Z,6.27
2023-02-13T18:24:32.306Z,6.39
2023-02-13T18:27:00.608Z,6.30
2023-02-13T18:29:28.671Z,6.23
2023-02-13T18:32:01.901Z,6.24
2023-02-13T18:34:30.079Z,5.93
2023-02-13T18:36:58.362Z,5.99
2023-02-13T18:39:26.476Z,6.07
2023-02-13T18:42:01.524Z,6.07
2023-02-13T18:44:35.059Z,6.21
2023-02-13T18:47:03.931Z,6.20
2023-02-13T18:49:33.021Z,6.21
2023-02-13T18:52:01.846Z,5.99
2023-02-13T18:54:30.058Z,6.27
2023-02-13T18:57:04.240Z,6.17
2023-02-13T18:59:44.229Z,6.17
2023-02-13T19:02:16.265Z,6.10
2023-02-13T19:04:53.295Z,6.12
2023-02-13T19:07:21.740Z,5.88
2023-02-13T19:09:50.322Z,6.15
2023-02-13T19:15:17.688Z,6.04
2023-02-13T19:17:47.163Z,5.85
2023-02-13T19:20:16.815Z,6.08
2023-02-13T19:22:44.916Z,5.82
2023-02-13T19:25:15.526Z,5.76
2023-02-13T19:27:47.796Z,5.67
2023-02-13T19:30:22.133Z,5.93
2023-02-13T19:32:53.294Z,5.87
2023-02-13T19:35:26.894Z,5.71
2023-02-13T19:37:55.054Z,5.81
2023-02-13T19:40:24.029Z,6.00
2023-02-13T19:42:51.552Z,5.68
2023-02-13T19:45:19.158Z,5.95
2023-02-13T19:47:46.564Z,5.88
2023-02-13T19:50:20.744Z,5.84
2023-02-13T19:52:56.873Z,5.65
2023-02-13T19:55:25.897Z,5.70
2023-02-13T19:57:54.696Z,5.76
2023-02-13T20:00:22.693Z,5.96
2023-02-13T20:02:51.516Z,6.06
2023-02-13T20:05:19.913Z,6.31
2023-02-13T20:07:48.341Z,6.53
2023-02-13T20:10:17.107Z,6.72
2023-02-13T20:12:46.777Z,6.42
2023-02-13T20:15:15.132Z,6.28
2023-02-13T20:17:43.333Z,6.32
2023-02-13T20:20:12.933Z,6.29
2023-02-13T20:22:40.371Z,6.65
2023-02-13T20:25:09.404Z,6.25
2023-02-13T20:27:43.062Z,6.25
2023-02-13T20:30:16.553Z,6.51
2023-02-13T20:32:45.246Z,6.30
2023-02-13T20:35:14.619Z,6.47
2023-02-13T20:37:44.212Z,6.32
2023-02-13T20:40:13.509Z,6.36
2023-02-13T20:42:45.624Z,6.44
2023-02-13T20:45:16.351Z,6.30
2023-02-13T20:47:49.185Z,6.47
2023-02-13T20:50:21.623Z,6.33
2023-02-13T20:52:57.750Z,6.60
2023-02-13T20:55:32.753Z,6.42
2023-02-13T20:58:04.010Z,6.31
2023-02-13T21:00:32.992Z,6.20
2023-02-13T21:03:01.720Z,6.54
2023-02-13T21:05:30.577Z,6.55
2023-02-13T21:08:03.618Z,6.34
2023-02-13T21:10:32.536Z,6.23
2023-02-13T21:13:01.667Z,6.58
2023-02-13T21:15:30.262Z,6.34
2023-02-13T21:17:58.218Z,6.28
2023-02-13T21:20:26.118Z,6.42
2023-02-13T21:22:53.422Z,6.38
2023-02-13T21:25:21.332Z,6.40
2023-02-13T21:27:48.929Z,6.43
2023-02-13T21:30:17.032Z,6.31
2023-02-13T21:32:44.441Z,6.34
2023-02-13T21:35:12.456Z,6.36
2023-02-13T21:37:41.248Z,6.53
2023-02-13T21:40:09.880Z,6.28
2023-02-13T21:42:37.441Z,6.23
2023-02-13T21:45:05.789Z,6.45
2023-02-13T21:47:33.539Z,6.38
2023-02-13T21:50:01.559Z,6.25
2023-02-13T21:52:29.149Z,6.46
2023-02-13T21:54:57.033Z,6.24
2023-02-13T21:57:26.135Z,6.23
2023-02-13T21:59:54.284Z,6.18
2023-02-13T22:02:21.450Z,5.99
2023-02-13T22:04:49.296Z,6.14
2023-02-13T22:07:16.419Z,6.40
2023-02-13T22:09:43.951Z,6.14
2023-02-13T22:12:11.190Z,6.19
2023-02-13T22:14:38.698Z,6.13
2023-02-13T22:17:06.194Z,6.11
2023-02-13T22:19:34.014Z,6.24
2023-02-13T22:22:01.624Z,6.33
2023-02-13T22:24:29.104Z,6.09
2023-02-13T22:26:56.329Z,6.30
2023-02-13T22:29:25.753Z,6.24
2023-02-13T22:31:53.162Z,6.21
2023-02-13T22:34:21.097Z,6.06
2023-02-13T22:36:48.457Z,6.24
2023-02-13T22:39:15.926Z,6.07
2023-02-13T22:41:45.705Z,6.24
2023-02-13T22:44:13.617Z,6.17
2023-02-13T22:46:41.175Z,6.15
2023-02-13T22:49:08.860Z,6.39
2023-02-13T22:51:37.192Z,6.14
2023-02-13T22:54:05.807Z,6.40
2023-02-13T22:56:33.914Z,6.36
2023-02-13T22:59:03.084Z,6.28
2023-02-13T23:01:30.546Z,6.43
2023-02-13T23:03:58.630Z,6.36
2023-02-13T23:06:27.074Z,6.29
2023-02-13T23:08:55.895Z,6.30
2023-02-13T23:11:44.038Z,6.24
2023-02-13T23:14:12.524Z,6.22
2023-02-13T23:16:59.257Z,6.29
2023-02-13T23:19:27.789Z,6.30
2023-02-13T23:21:55.197Z,6.09
2023-02-13T23:24:22.888Z,5.97
2023-02-13T23:26:50.048Z,6.34
2023-02-13T23:29:17.619Z,6.23
2023-02-13T23:31:45.044Z,6.16
2023-02-13T23:34:12.550Z,6.10
2023-02-13T23:36:39.610Z,6.38
2023-02-13T23:39:07.092Z,6.21
2023-02-13T23:41:34.336Z,6.34
2023-02-13T23:44:01.842Z,6.45
2023-02-13T23:46:29.050Z,6.26
2023-02-13T23:48:56.569Z,5.93
2023-02-13T23:51:25.516Z,6.22
2023-02-13T23:53:55.973Z,6.28
2023-02-13T23:56:24.809Z,6.01
2023-02-13T23:58:52.527Z,6.05
